createdAt,value
2022-11-26T00:02:29.243Z,97858.63
2022-11-26T00:04:58.251Z,97864.81
2022-11-26T00:07:29.868Z,97862.72
2022-11-26T00:09:59.394Z,97859.91
2022-11-26T00:12:31.341Z,97863.09
2022-11-26T00:15:14.495Z,97866.38
2022-11-26T00:17:41.745Z,97867.91
2022-11-26T00:20:09.618Z,97866.47
2022-11-26T00:22:49.715Z,97867.09
2022-11-26T00:25:47.108Z,97864.94
2022-11-26T00:28:38.474Z,97864.75
2022-11-26T00:31:15.789Z,97865.97
2022-11-26T00:33:43.117Z,97869.19
2022-11-26T00:36:21.933Z,97869.19
2022-11-26T00:38:55.876Z,97875.94
2022-11-26T00:41:29.082Z,97873.72
2022-11-26T00:43:56.407Z,97884.72
2022-11-26T00:46:23.757Z,97885.13
2022-11-26T00:48:52.170Z,97886.94
2022-11-26T00:51:26.461Z,97882.91
2022-11-26T00:54:02.165Z,97895.72
2022-11-26T00:56:33.876Z,97889.09
2022-11-26T00:59:05.513Z,97888.28
2022-11-26T01:01:33.186Z,97893.16
2022-11-26T01:04:00.469Z,97893.16
2022-11-26T01:06:38.902Z,97897.75
2022-11-26T01:09:07.920Z,97903.63
2022-11-26T01:11:35.121Z,97897.75
2022-11-26T01:14:02.697Z,97893.72
2022-11-26T01:16:36.028Z,97902.94
2022-11-26T01:19:04.189Z,97907.59
2022-11-26T01:21:31.951Z,97911.59
2022-11-26T01:23:59.179Z,97911.75
2022-11-26T01:26:33.794Z,97905.44
2022-11-26T01:29:00.984Z,97910.25
2022-11-26T01:31:29.892Z,97905.34
2022-11-26T01:33:57.876Z,97911.38
2022-11-26T01:36:31.450Z,97912.56
2022-11-26T01:39:06.716Z,97916.22
2022-11-26T01:42:37.635Z,97916.94
2022-11-26T01:45:19.095Z,97914.13
2022-11-26T01:47:49.268Z,97918.97
2022-11-26T01:50:31.234Z,97915.50
2022-11-26T01:53:11.116Z,97915.72
2022-11-26T01:55:54.245Z,97916.38
2022-11-26T01:58:29.215Z,97916.72
2022-11-26T02:00:56.745Z,97922.75
2022-11-26T02:03:24.982Z,97921.38
2022-11-26T02:06:08.748Z,97922.34
2022-11-26T02:08:36.696Z,97927.78
2022-11-26T02:11:24.548Z,97927.41
2022-11-26T02:13:56.267Z,97923.78
2022-11-26T02:16:45.805Z,97929.78
2022-11-26T02:19:50.348Z,97926.94
2022-11-26T02:23:20.660Z,97924.75
2022-11-26T02:26:57.859Z,97919.59
2022-11-26T02:30:10.861Z,97920.72
2022-11-26T02:33:07.883Z,97926.72
2022-11-26T02:35:48.465Z,97922.09
2022-11-26T02:38:24.431Z,97921.13
2022-11-26T02:40:53.091Z,97921.94
2022-11-26T02:43:20.604Z,97919.97
2022-11-26T02:45:54.404Z,97923.41
2022-11-26T02:48:29.721Z,97927.47
2022-11-26T02:51:10.567Z,97923.97
2022-11-26T02:53:38.037Z,97932.22
2022-11-26T02:56:19.895Z,97931.41
2022-11-26T02:58:50.295Z,97930.03
2022-11-26T03:01:29.565Z,97933.25
2022-11-26T03:04:03.270Z,97932.69
2022-11-26T03:06:34.435Z,97936.38
2022-11-26T03:09:01.912Z,97931.25
2022-11-26T03:11:29.286Z,97935.72
2022-11-26T03:13:56.599Z,97928.53
2022-11-26T03:16:23.863Z,97936.38
2022-11-26T03:18:51.425Z,97932.38
2022-11-26T03:21:18.577Z,97933.34
2022-11-26T03:23:45.913Z,97931.97
2022-11-26T03:26:13.136Z,97938.78
2022-11-26T03:28:40.368Z,97930.28
2022-11-26T03:31:07.749Z,97938.81
2022-11-26T03:33:35.017Z,97935.47
2022-11-26T03:36:02.220Z,97936.97
2022-11-26T03:38:29.470Z,97946.00
2022-11-26T03:41:03.993Z,97952.56
2022-11-26T03:43:31.394Z,97958.47
2022-11-26T03:45:58.689Z,97960.63
2022-11-26T03:48:25.939Z,97961.22
2022-11-26T03:50:53.239Z,97953.47
2022-11-26T03:53:20.527Z,97963.88
2022-11-26T03:55:48.034Z,97970.13
2022-11-26T03:58:15.374Z,97968.09
2022-11-26T04:00:42.823Z,97971.09
2022-11-26T04:03:10.098Z,97964.59
2022-11-26T04:05:37.502Z,97973.78
2022-11-26T04:08:04.795Z,97975.84
2022-11-26T04:10:32.220Z,97979.69
2022-11-26T04:12:59.372Z,97970.66
2022-11-26T04:15:26.513Z,97976.63
2022-11-26T04:17:53.734Z,97974.53
2022-11-26T04:20:20.884Z,97971.47
2022-11-26T04:22:48.061Z,97975.53
2022-11-26T04:25:15.310Z,97978.25
2022-11-26T04:27:42.447Z,97980.13
2022-11-26T04:30:10.507Z,97983.31
2022-11-26T04:32:39.940Z,97995.06
2022-11-26T04:35:08.752Z,97988.88
2022-11-26T04:37:36.339Z,97989.66
2022-11-26T04:40:04.047Z,98003.16
2022-11-26T04:42:31.285Z,97997.47
2022-11-26T04:44:58.676Z,98001.69
2022-11-26T04:47:25.865Z,98008.63
2022-11-26T04:49:53.170Z,98018.59
2022-11-26T04:52:20.718Z,98021.50
2022-11-26T04:54:47.987Z,98016.25
2022-11-26T04:57:15.195Z,98021.66
2022-11-26T04:59:42.361Z,98023.84
2022-11-26T05:02:09.749Z,98014.94
2022-11-26T05:04:37.157Z,98020.44
2022-11-26T05:07:04.963Z,98024.06
2022-11-26T05:09:32.289Z,98025.88
2022-11-26T05:11:59.504Z,98021.22
2022-11-26T05:14:26.998Z,98023.75
2022-11-26T05:16:54.202Z,98019.84
2022-11-26T05:19:21.507Z,98022.97
2022-11-26T05:21:48.749Z,98017.63
2022-11-26T05:24:16.058Z,98023.63
2022-11-26T05:26:43.222Z,98028.72
2022-11-26T05:29:10.457Z,98033.53
2022-11-26T05:31:37.844Z,98034.69
2022-11-26T05:34:05.327Z,98034.03
2022-11-26T05:36:32.538Z,98032.72
2022-11-26T05:38:59.770Z,98034.84
2022-11-26T05:41:27.076Z,98036.88
2022-11-26T05:43:54.407Z,98040.66
2022-11-26T05:46:21.764Z,98044.88
2022-11-26T05:48:48.979Z,98044.88
2022-11-26T05:51:16.200Z,98044.09
2022-11-26T05:53:43.575Z,98044.09
2022-11-26T05:56:10.995Z,98051.31
2022-11-26T05:58:38.214Z,98051.97
2022-11-26T06:01:09.472Z,98064.13
2022-11-26T06:03:37.677Z,98064.91
2022-11-26T06:06:05.643Z,98070.56
2022-11-26T06:08:33.377Z,98075.94
2022-11-26T06:11:00.496Z,98072.66
2022-11-26T06:13:27.841Z,98076.59
2022-11-26T06:15:55.312Z,98078.28
2022-11-26T06:18:22.607Z,98086.16
2022-11-26T06:20:49.746Z,98077.53
2022-11-26T06:23:16.946Z,98089.69
2022-11-26T06:25:44.407Z,98092.94
2022-11-26T06:28:11.619Z,98094.31
2022-11-26T06:30:38.812Z,98095.91
2022-11-26T06:33:06.079Z,98099.69
2022-11-26T06:35:33.322Z,98093.63
2022-11-26T06:38:00.561Z,98100.88
2022-11-26T06:40:27.774Z,98104.94
2022-11-26T06:42:55.117Z,98108.53
2022-11-26T06:45:23.783Z,98109.91
2022-11-26T06:47:52.323Z,98110.34
2022-11-26T06:50:22.102Z,98116.47
2022-11-26T06:52:54.279Z,98112.81
2022-11-26T06:55:21.977Z,98119.25
2022-11-26T06:57:52.865Z,98124.03
2022-11-26T07:00:20.586Z,98122.28
2022-11-26T07:02:48.284Z,98128.78
2022-11-26T07:05:15.657Z,98127.03
2022-11-26T07:07:42.951Z,98137.09
2022-11-26T07:10:10.741Z,98128.91
2022-11-26T07:12:38.035Z,98143.88
2022-11-26T07:15:06.248Z,98141.69
2022-11-26T07:17:33.765Z,98145.47
2022-11-26T07:20:01.121Z,98142.03
2022-11-26T07:22:28.330Z,98145.34
2022-11-26T07:24:55.610Z,98153.34
2022-11-26T07:27:22.781Z,98158.28
2022-11-26T07:29:51.901Z,98157.50
2022-11-26T07:32:19.866Z,98162.31
2022-11-26T07:34:47.371Z,98158.09
2022-11-26T07:37:14.574Z,98159.03
2022-11-26T07:39:41.960Z,98167.41
2022-11-26T07:42:09.235Z,98163.63
2022-11-26T07:44:37.027Z,98167.25
2022-11-26T07:47:04.712Z,98174.56
2022-11-26T07:49:32.016Z,98175.81
2022-11-26T07:51:59.317Z,98177.63
2022-11-26T07:54:26.539Z,98177.22
2022-11-26T07:56:54.112Z,98183.47
2022-11-26T07:59:22.655Z,98181.09
2022-11-26T08:01:49.977Z,98186.63
2022-11-26T08:04:17.335Z,98193.00
2022-11-26T08:06:44.693Z,98190.66
2022-11-26T08:09:12.475Z,98189.22
2022-11-26T08:11:39.767Z,98195.13
2022-11-26T08:14:11.942Z,98191.16
2022-11-26T08:16:39.802Z,98189.78
2022-11-26T08:19:11.508Z,98192.81
2022-11-26T08:21:39.923Z,98197.75
2022-11-26T08:24:12.705Z,98202.69
2022-11-26T08:26:44.245Z,98204.06
2022-11-26T08:29:13.458Z,98200.66
2022-11-26T08:31:45.798Z,98205.00
2022-11-26T08:34:16.510Z,98203.97
2022-11-26T08:36:45.170Z,98202.84
2022-11-26T08:39:18.165Z,98207.63
2022-11-26T08:41:50.553Z,98207.63
2022-11-26T08:44:19.656Z,98206.19
2022-11-26T08:46:47.032Z,98211.88
2022-11-26T08:49:15.212Z,98213.06
2022-11-26T08:51:43.872Z,98215.22
2022-11-26T08:54:11.951Z,98220.31
2022-11-26T08:56:39.277Z,98220.84
2022-11-26T08:59:06.572Z,98235.03
2022-11-26T09:01:34.993Z,98225.34
2022-11-26T09:04:03.990Z,98228.63
2022-11-26T09:06:34.092Z,98228.88
2022-11-26T09:09:14.469Z,98235.25
2022-11-26T09:11:57.870Z,98236.00
2022-11-26T09:14:31.723Z,98224.28
2022-11-26T09:16:59.843Z,98234.53
2022-11-26T09:19:28.829Z,98237.53
2022-11-26T09:21:56.383Z,98242.47
2022-11-26T09:24:23.715Z,98242.34
2022-11-26T09:26:51.131Z,98244.97
2022-11-26T09:29:21.999Z,98253.00
2022-11-26T09:34:39.021Z,98257.31
2022-11-26T09:37:07.008Z,98252.28
2022-11-26T09:39:34.355Z,98252.09
2022-11-26T09:42:37.832Z,98256.78
2022-11-26T09:45:42.406Z,98249.66
2022-11-26T09:48:22.958Z,98261.81
2022-11-26T09:50:55.332Z,98256.84
2022-11-26T09:53:31.926Z,98261.03
2022-11-26T09:56:01.367Z,98263.81
2022-11-26T09:58:39.059Z,98261.69
2022-11-26T10:01:07.733Z,98260.22
2022-11-26T10:03:37.899Z,98260.81
2022-11-26T10:06:30.989Z,98262.84
2022-11-26T10:09:15.170Z,98259.56
2022-11-26T10:12:25.835Z,98266.44
2022-11-26T10:15:50.515Z,98270.06
2022-11-26T10:18:35.610Z,98273.47
2022-11-26T10:21:57.202Z,98279.78
2022-11-26T10:24:42.241Z,98278.47
2022-11-26T10:27:18.390Z,98283.94
2022-11-26T10:30:17.156Z,98282.22
2022-11-26T10:32:47.187Z,98280.44
2022-11-26T10:35:33.319Z,98280.97
2022-11-26T10:38:01.017Z,98277.59
2022-11-26T10:40:31.135Z,98274.06
2022-11-26T10:43:25.001Z,98275.50
2022-11-26T10:45:56.024Z,98278.69
2022-11-26T10:48:32.653Z,98277.31
2022-11-26T10:51:23.827Z,98273.38
2022-11-26T10:54:04.442Z,98275.19
2022-11-26T10:56:44.767Z,98276.88
2022-11-26T10:59:30.438Z,98279.78
2022-11-26T11:02:05.737Z,98275.50
2022-11-26T11:04:40.294Z,98273.66
2022-11-26T11:07:45.514Z,98276.94
2022-11-26T11:10:12.609Z,98277.31
2022-11-26T11:13:01.923Z,98269.28
2022-11-26T11:15:35.649Z,98270.50
2022-11-26T11:18:17.698Z,98269.91
2022-11-26T11:20:55.827Z,98282.19
2022-11-26T11:23:52.263Z,98279.94
2022-11-26T11:26:24.113Z,98273.56
2022-11-26T11:28:56.670Z,98281.03
2022-11-26T11:31:27.256Z,98278.91
2022-11-26T11:34:27.672Z,98278.69
2022-11-26T11:37:14.779Z,98278.31
2022-11-26T11:39:43.821Z,98275.69
2022-11-26T11:42:40.508Z,98284.59
2022-11-26T11:45:28.417Z,98286.63
2022-11-26T11:48:01.613Z,98285.59
2022-11-26T11:51:13.567Z,98284.06
2022-11-26T11:54:14.728Z,98288.22
2022-11-26T11:56:57.635Z,98290.56
2022-11-26T11:59:47.777Z,98288.91
2022-11-26T12:02:37.127Z,98294.16
2022-11-26T12:05:26.273Z,98290.63
2022-11-26T12:08:07.275Z,98290.16
2022-11-26T12:10:58.511Z,98290.38
2022-11-26T12:13:27.287Z,98294.88
2022-11-26T12:16:07.262Z,98291.47
2022-11-26T12:19:05.294Z,98297.81
2022-11-26T12:21:51.075Z,98299.13
2022-11-26T12:24:46.540Z,98289.38
2022-11-26T12:27:43.231Z,98296.25
2022-11-26T12:30:26.624Z,98302.97
2022-11-26T12:33:18.065Z,98304.00
2022-11-26T12:35:58.977Z,98309.19
2022-11-26T12:38:35.227Z,98310.56
2022-11-26T12:41:09.689Z,98305.16
2022-11-26T12:44:14.804Z,98311.44
2022-11-26T12:46:46.857Z,98309.84
2022-11-26T12:49:35.832Z,98307.22
2022-11-26T12:52:14.361Z,98307.56
2022-11-26T12:54:50.228Z,98304.88
2022-11-26T12:57:34.196Z,98307.16
2022-11-26T13:00:06.934Z,98305.59
2022-11-26T13:02:58.893Z,98302.63
2022-11-26T13:05:37.703Z,98301.22
2022-11-26T13:08:17.594Z,98300.66
2022-11-26T13:11:09.945Z,98302.25
2022-11-26T13:14:11.336Z,98305.75
2022-11-26T13:17:40.904Z,98302.72
2022-11-26T13:20:33.915Z,98306.75
2022-11-26T13:23:43.556Z,98313.81
2022-11-26T13:26:19.708Z,98312.16
2022-11-26T13:29:17.447Z,98313.88
2022-11-26T13:32:02.502Z,98320.94
2022-11-26T13:34:58.797Z,98315.75
2022-11-26T13:38:32.050Z,98319.56
2022-11-26T13:41:36.552Z,98320.28
2022-11-26T13:44:52.961Z,98319.41
2022-11-26T13:47:34.638Z,98327.16
2022-11-26T13:50:43.663Z,98321.97
2022-11-26T13:53:15.544Z,98325.41
2022-11-26T13:56:05.797Z,98323.13
2022-11-26T13:58:47.100Z,98324.09
2022-11-26T14:01:34.084Z,98323.63
2022-11-26T14:04:03.484Z,98324.38
2022-11-26T14:06:31.244Z,98319.97
2022-11-26T14:08:58.709Z,98320.88
2022-11-26T14:11:41.024Z,98326.63
2022-11-26T14:14:28.450Z,98325.16
2022-11-26T14:17:01.190Z,98322.84
2022-11-26T14:19:40.346Z,98322.63
2022-11-26T14:22:22.319Z,98321.47
2022-11-26T14:24:52.167Z,98328.19
2022-11-26T14:27:25.162Z,98331.38
2022-11-26T14:30:13.595Z,98329.72
2022-11-26T14:32:51.727Z,98327.06
2022-11-26T14:35:35.022Z,98327.97
2022-11-26T14:38:26.544Z,98336.78
2022-11-26T14:41:01.447Z,98337.00
2022-11-26T14:43:29.759Z,98338.75
2022-11-26T14:46:05.898Z,98338.16
2022-11-26T14:48:37.373Z,98337.44
2022-11-26T14:51:08.500Z,98344.72
2022-11-26T14:53:40.777Z,98345.75
2022-11-26T14:56:10.579Z,98339.94
2022-11-26T14:58:45.011Z,98345.81
2022-11-26T15:01:25.721Z,98342.75
2022-11-26T15:04:07.215Z,98354.41
2022-11-26T15:06:42.590Z,98358.69
2022-11-26T15:09:24.415Z,98352.59
2022-11-26T15:12:05.820Z,98347.94
2022-11-26T15:14:44.505Z,98360.94
2022-11-26T15:17:16.876Z,98357.00
2022-11-26T15:19:44.994Z,98349.91
2022-11-26T15:22:38.481Z,98357.78
2022-11-26T15:25:16.065Z,98367.47
2022-11-26T15:28:01.907Z,98358.25
2022-11-26T15:30:35.904Z,98356.31
2022-11-26T15:33:14.345Z,98359.75
2022-11-26T15:35:43.799Z,98354.72
2022-11-26T15:38:21.001Z,98364.47
2022-11-26T15:40:59.165Z,98357.84
2022-11-26T15:43:54.790Z,98368.63
2022-11-26T15:46:42.084Z,98362.16
2022-11-26T15:49:28.171Z,98366.94
2022-11-26T15:52:09.987Z,98377.59
2022-11-26T15:55:10.850Z,98374.03
2022-11-26T15:57:41.018Z,98367.22
2022-11-26T16:00:51.630Z,98377.53
2022-11-26T16:03:49.344Z,98384.66
2022-11-26T16:06:44.577Z,98386.03
2022-11-26T16:09:17.610Z,98379.75
2022-11-26T16:12:00.130Z,98385.84
2022-11-26T16:14:35.945Z,98385.59
2022-11-26T16:17:13.169Z,98377.63
2022-11-26T16:20:03.484Z,98389.06
2022-11-26T16:22:34.222Z,98395.06
2022-11-26T16:25:07.611Z,98398.97
2022-11-26T16:27:35.426Z,98397.28
2022-11-26T16:30:14.589Z,98397.31
2022-11-26T16:32:41.869Z,98404.41
2022-11-26T16:35:37.715Z,98404.38
2022-11-26T16:37:56.812Z,98403.75
2022-11-26T16:40:24.771Z,98400.19
2022-11-26T16:42:52.414Z,98400.19
2022-11-26T16:45:20.278Z,98406.19
2022-11-26T16:47:52.002Z,98407.19
2022-11-26T16:50:23.303Z,98401.56
2022-11-26T16:52:50.762Z,98412.06
2022-11-26T16:55:22.569Z,98414.44
2022-11-26T16:57:54.186Z,98415.66
2022-11-26T17:00:25.773Z,98416.00
2022-11-26T17:02:54.279Z,98416.72
2022-11-26T17:05:22.683Z,98422.44
2022-11-26T17:07:57.694Z,98419.44
2022-11-26T17:10:29.279Z,98421.25
2022-11-26T17:12:57.665Z,98419.53
2022-11-26T17:15:24.966Z,98426.78
2022-11-26T17:18:05.693Z,98422.00
2022-11-26T17:20:34.258Z,98425.81
2022-11-26T17:23:01.614Z,98427.78
2022-11-26T17:25:28.894Z,98431.94
2022-11-26T17:27:56.350Z,98429.41
2022-11-26T17:30:24.637Z,98432.88
2022-11-26T17:32:52.347Z,98431.06
2022-11-26T17:35:19.968Z,98436.31
2022-11-26T17:37:47.509Z,98436.84
2022-11-26T17:40:21.220Z,98441.66
2022-11-26T17:42:49.944Z,98436.19
2022-11-26T17:45:18.956Z,98442.84
2022-11-26T17:47:46.854Z,98439.09
2022-11-26T17:50:27.637Z,98443.53
2022-11-26T17:52:55.077Z,98437.25
2022-11-26T17:55:24.860Z,98443.38
2022-11-26T17:57:52.909Z,98440.31
2022-11-26T18:00:25.724Z,98455.06
2022-11-26T18:02:53.082Z,98458.94
2022-11-26T18:05:21.033Z,98456.06
2022-11-26T18:07:49.962Z,98465.63
2022-11-26T18:10:20.449Z,98463.81
2022-11-26T18:12:48.532Z,98467.28
2022-11-26T18:15:25.989Z,98472.09
2022-11-26T18:17:55.327Z,98473.84
2022-11-26T18:20:27.644Z,98474.25
2022-11-26T18:22:58.930Z,98477.66
2022-11-26T18:25:26.832Z,98483.31
2022-11-26T18:27:54.545Z,98487.56
2022-11-26T18:30:22.339Z,98482.38
2022-11-26T18:32:49.696Z,98486.66
2022-11-26T18:35:17.881Z,98493.91
2022-11-26T18:37:45.400Z,98494.16
2022-11-26T18:40:17.232Z,98492.94
2022-11-26T18:42:45.186Z,98498.78
2022-11-26T18:45:15.875Z,98499.97
2022-11-26T18:47:43.585Z,98504.47
2022-11-26T18:50:13.193Z,98506.84
2022-11-26T18:52:40.523Z,98504.03
2022-11-26T18:55:09.657Z,98505.59
2022-11-26T18:57:37.215Z,98502.44
2022-11-26T19:00:06.757Z,98505.44
2022-11-26T19:02:37.166Z,98502.09
2022-11-26T19:05:05.664Z,98511.13
2022-11-26T19:07:33.395Z,98510.59
2022-11-26T19:10:00.834Z,98516.19
2022-11-26T19:12:28.194Z,98524.28
2022-11-26T19:14:55.376Z,98522.69
2022-11-26T19:17:22.837Z,98522.66
2022-11-26T19:19:50.156Z,98519.84
2022-11-26T19:22:17.586Z,98519.22
2022-11-26T19:24:44.855Z,98528.91
2022-11-26T19:27:13.715Z,98526.25
2022-11-26T19:29:41.313Z,98529.69
2022-11-26T19:32:08.994Z,98530.34
2022-11-26T19:34:36.532Z,98535.34
2022-11-26T19:37:04.576Z,98534.41
2022-11-26T19:39:32.567Z,98542.47
2022-11-26T19:42:00.401Z,98541.88
2022-11-26T19:44:27.865Z,98534.16
2022-11-26T19:46:55.300Z,98537.22
2022-11-26T19:49:23.263Z,98542.03
2022-11-26T19:51:50.629Z,98552.34
2022-11-26T19:54:17.945Z,98549.31
2022-11-26T19:56:46.017Z,98555.38
2022-11-26T19:59:13.431Z,98552.78
2022-11-26T20:01:41.260Z,98560.47
2022-11-26T20:07:35.881Z,98569.13
2022-11-26T20:10:03.797Z,98565.72
2022-11-26T20:12:31.176Z,98562.28
2022-11-26T20:14:59.399Z,98565.28
2022-11-26T20:17:26.751Z,98561.81
2022-11-26T20:19:54.291Z,98564.06
2022-11-26T20:22:21.657Z,98565.47
2022-11-26T20:24:49.143Z,98563.47
2022-11-26T20:27:16.558Z,98565.28
2022-11-26T20:29:43.866Z,98553.19
2022-11-26T20:32:12.064Z,98562.25
2022-11-26T20:34:39.461Z,98568.91
2022-11-26T20:37:06.809Z,98565.09
2022-11-26T20:39:34.329Z,98560.28
2022-11-26T20:42:01.656Z,98563.69
2022-11-26T20:44:29.160Z,98558.81
2022-11-26T20:46:57.620Z,98557.03
2022-11-26T20:49:27.489Z,98555.63
2022-11-26T20:51:58.189Z,98553.56
2022-11-26T20:54:25.796Z,98554.84
2022-11-26T20:56:53.163Z,98551.00
2022-11-26T20:59:20.601Z,98548.97
2022-11-26T21:01:48.076Z,98555.03
2022-11-26T21:04:15.626Z,98557.84
2022-11-26T21:06:44.314Z,98561.28
2022-11-26T21:09:13.287Z,98551.81
2022-11-26T21:11:41.578Z,98559.44
2022-11-26T21:14:14.605Z,98562.88
2022-11-26T21:16:42.713Z,98566.72
2022-11-26T21:19:12.585Z,98562.09
2022-11-26T21:21:40.360Z,98573.38
2022-11-26T21:24:08.540Z,98567.94
2022-11-26T21:26:35.867Z,98564.69
2022-11-26T21:29:03.605Z,98565.31
2022-11-26T21:31:32.262Z,98565.28
2022-11-26T21:34:03.213Z,98572.38
2022-11-26T21:36:33.307Z,98567.91
2022-11-26T21:39:01.137Z,98575.94
2022-11-26T21:41:28.637Z,98578.16
2022-11-26T21:43:56.035Z,98582.00
2022-11-26T21:46:27.396Z,98585.63
2022-11-26T21:48:56.625Z,98584.22
2022-11-26T21:51:27.739Z,98584.84
2022-11-26T21:53:57.058Z,98580.41
2022-11-26T21:56:31.149Z,98583.81
2022-11-26T21:59:00.548Z,98588.09
2022-11-26T22:01:35.275Z,98588.47
2022-11-26T22:04:09.800Z,98590.47
2022-11-26T22:06:38.288Z,98591.88
2022-11-26T22:09:07.049Z,98592.31
2022-11-26T22:11:38.907Z,98592.50
2022-11-26T22:14:08.985Z,98591.09
2022-11-26T22:16:37.221Z,98595.31
2022-11-26T22:19:05.427Z,98588.84
2022-11-26T22:21:41.875Z,98585.47
2022-11-26T22:24:16.431Z,98591.69
2022-11-26T22:26:44.610Z,98591.50
2022-11-26T22:29:14.812Z,98590.91
2022-11-26T22:31:43.032Z,98589.69
2022-11-26T22:34:16.170Z,98590.50
2022-11-26T22:36:44.845Z,98592.91
2022-11-26T22:39:15.819Z,98592.72
2022-11-26T22:41:44.836Z,98592.31
2022-11-26T22:44:13.974Z,98590.28
2022-11-26T22:46:41.341Z,98592.91
2022-11-26T22:49:13.723Z,98587.44
2022-11-26T22:51:41.076Z,98584.22
2022-11-26T22:54:11.740Z,98593.31
2022-11-26T22:56:39.617Z,98588.47
2022-11-26T22:59:10.631Z,98581.66
2022-11-26T23:01:37.979Z,98583.88
2022-11-26T23:04:09.026Z,98595.72
2022-11-26T23:06:37.222Z,98585.66
2022-11-26T23:09:07.662Z,98583.22
2022-11-26T23:11:39.616Z,98584.25
2022-11-26T23:14:09.504Z,98582.78
2022-11-26T23:16:40.156Z,98582.59
2022-11-26T23:19:08.134Z,98580.19
2022-11-26T23:21:40.431Z,98575.56
2022-11-26T23:24:08.572Z,98573.53
2022-11-26T23:26:38.825Z,98569.47
2022-11-26T23:29:07.678Z,98573.56
2022-11-26T23:31:43.979Z,98576.00
2022-11-26T23:34:11.970Z,98571.16
2022-11-26T23:36:39.832Z,98574.16
2022-11-26T23:39:10.983Z,98573.78
2022-11-26T23:41:38.253Z,98576.41
2022-11-26T23:44:05.693Z,98571.34
2022-11-26T23:46:35.373Z,98580.03
2022-11-26T23:49:03.284Z,98572.75
2022-11-26T23:51:32.690Z,98578.56
2022-11-26T23:54:00.074Z,98572.75
2022-11-26T23:56:32.962Z,98575.56
2022-11-26T23:59:03.099Z,98564.31
